createdAt,value
2022-11-29T00:01:36.875Z,101604.19
2022-11-29T00:04:04.670Z,101597.28
2022-11-29T00:06:34.893Z,101605.13
2022-11-29T00:09:06.814Z,101607.63
2022-11-29T00:11:55.988Z,101603.28
2022-11-29T00:14:24.054Z,101590.19
2022-11-29T00:16:54.157Z,101590.19
2022-11-29T00:19:21.573Z,101598.94
2022-11-29T00:21:48.463Z,101593.75
2022-11-29T00:24:15.330Z,101594.44
2022-11-29T00:26:42.223Z,101590.19
2022-11-29T00:29:12.151Z,101590.13
2022-11-29T00:31:39.967Z,101597.81
2022-11-29T00:34:07.320Z,101594.34
2022-11-29T00:36:35.429Z,101589.19
2022-11-29T00:39:04.658Z,101585.63
2022-11-29T00:41:32.194Z,101592.53
2022-11-29T00:43:59.101Z,101596.00
2022-11-29T00:46:26.107Z,101585.66
2022-11-29T00:48:53.063Z,101586.56
2022-11-29T00:51:20.002Z,101586.56
2022-11-29T00:53:46.967Z,101591.72
2022-11-29T00:56:13.863Z,101594.25
2022-11-29T00:58:43.456Z,101583.75
2022-11-29T01:01:11.647Z,101594.31
2022-11-29T01:03:38.649Z,101595.13
2022-11-29T01:06:09.240Z,101587.34
2022-11-29T01:08:37.087Z,101585.53
2022-11-29T01:11:10.844Z,101580.38
2022-11-29T01:13:38.073Z,101581.25
2022-11-29T01:16:06.026Z,101582.81
2022-11-29T01:18:34.122Z,101587.16
2022-11-29T01:21:06.715Z,101587.31
2022-11-29T01:23:34.978Z,101590.72
2022-11-29T01:26:20.593Z,101585.53
2022-11-29T01:28:51.145Z,101591.34
2022-11-29T01:31:22.326Z,101588.94
2022-11-29T01:33:49.295Z,101591.59
2022-11-29T01:36:16.268Z,101597.66
2022-11-29T01:38:43.369Z,101600.34
2022-11-29T01:41:17.705Z,101595.19
2022-11-29T01:44:13.759Z,101596.91
2022-11-29T01:46:46.216Z,101595.19
2022-11-29T01:49:15.904Z,101601.16
2022-11-29T01:51:50.908Z,101599.53
2022-11-29T01:54:18.657Z,101600.47
2022-11-29T01:56:49.358Z,101601.41
2022-11-29T01:59:23.510Z,101601.47
2022-11-29T02:01:51.288Z,101600.72
2022-11-29T02:04:18.650Z,101600.72
2022-11-29T02:06:46.579Z,101593.81
2022-11-29T02:09:22.458Z,101599.81
2022-11-29T02:12:08.084Z,101592.13
2022-11-29T02:14:49.483Z,101598.22
2022-11-29T02:17:35.221Z,101601.69
2022-11-29T02:20:42.712Z,101605.16
2022-11-29T02:23:40.993Z,101601.63
2022-11-29T02:26:54.337Z,101600.75
2022-11-29T02:29:47.479Z,101604.28
2022-11-29T02:33:07.235Z,101608.56
2022-11-29T02:36:12.651Z,101605.75
2022-11-29T02:39:13.247Z,101610.81
2022-11-29T02:42:54.122Z,101617.69
2022-11-29T02:45:42.820Z,101610.81
2022-11-29T02:48:51.489Z,101609.97
2022-11-29T02:51:38.200Z,101612.69
2022-11-29T02:54:50.352Z,101609.28
2022-11-29T02:57:28.559Z,101606.66
2022-11-29T03:00:18.304Z,101614.41
2022-11-29T03:02:51.219Z,101617.09
2022-11-29T03:05:41.390Z,101610.16
2022-11-29T03:08:51.032Z,101609.28
2022-11-29T03:11:47.311Z,101611.84
2022-11-29T03:14:28.657Z,101615.31
2022-11-29T03:17:32.129Z,101605.03
2022-11-29T03:20:35.622Z,101614.56
2022-11-29T03:23:26.797Z,101613.75
2022-11-29T03:26:09.468Z,101623.31
2022-11-29T03:28:48.031Z,101622.47
2022-11-29T03:31:37.411Z,101623.34
2022-11-29T03:34:38.165Z,101617.31
2022-11-29T03:37:18.469Z,101617.31
2022-11-29T03:39:49.855Z,101614.72
2022-11-29T03:42:25.485Z,101625.84
2022-11-29T03:45:30.358Z,101634.44
2022-11-29T03:48:19.339Z,101626.59
2022-11-29T03:50:57.010Z,101630.91
2022-11-29T03:54:11.198Z,101633.41
2022-11-29T03:56:40.921Z,101630.84
2022-11-29T03:59:34.895Z,101632.63
2022-11-29T04:02:45.931Z,101627.19
2022-11-29T04:05:48.648Z,101640.13
2022-11-29T04:08:46.467Z,101628.50
2022-11-29T04:12:00.216Z,101636.56
2022-11-29T04:14:34.763Z,101634.84
2022-11-29T04:17:33.859Z,101644.31
2022-11-29T04:20:22.310Z,101643.44
2022-11-29T04:23:25.854Z,101646.94
2022-11-29T04:26:33.566Z,101644.31
2022-11-29T04:29:22.267Z,101650.34
2022-11-29T04:32:00.011Z,101647.84
2022-11-29T04:34:56.249Z,101647.78
2022-11-29T04:37:49.411Z,101645.75
2022-11-29T04:41:04.354Z,101642.09
2022-11-29T04:44:18.868Z,101650.69
2022-11-29T04:47:18.689Z,101647.09
2022-11-29T04:50:07.606Z,101659.25
2022-11-29T04:53:12.022Z,101663.63
2022-11-29T04:56:11.692Z,101661.81
2022-11-29T04:58:55.203Z,101651.38
2022-11-29T05:01:53.188Z,101661.91
2022-11-29T05:05:15.598Z,101661.91
2022-11-29T05:08:24.178Z,101668.72
2022-11-29T05:11:25.016Z,101664.38
2022-11-29T05:14:24.314Z,101663.50
2022-11-29T05:17:33.598Z,101668.66
2022-11-29T05:20:45.397Z,101668.66
2022-11-29T05:23:44.909Z,101670.34
2022-11-29T05:26:59.887Z,101667.75
2022-11-29T05:29:39.670Z,101677.19
2022-11-29T05:32:46.656Z,101677.19
2022-11-29T05:35:53.647Z,101670.31
2022-11-29T05:38:36.367Z,101675.50
2022-11-29T05:41:17.891Z,101673.84
2022-11-29T05:44:12.580Z,101665.91
2022-11-29T05:46:56.987Z,101673.75
2022-11-29T05:49:33.561Z,101681.53
2022-11-29T05:52:27.011Z,101681.53
2022-11-29T05:55:22.880Z,101691.00
2022-11-29T05:58:00.891Z,101691.78
2022-11-29T06:00:45.650Z,101691.75
2022-11-29T06:03:37.211Z,101696.84
2022-11-29T06:06:17.718Z,101698.56
2022-11-29T06:09:16.146Z,101700.13
2022-11-29T06:11:59.612Z,101699.31
2022-11-29T06:14:48.006Z,101709.56
2022-11-29T06:17:55.465Z,101711.16
2022-11-29T06:21:00.824Z,101716.25
2022-11-29T06:24:00.446Z,101716.22
2022-11-29T06:27:14.857Z,101718.81
2022-11-29T06:29:49.300Z,101718.81
2022-11-29T06:32:37.321Z,101736.00
2022-11-29T06:35:28.665Z,101728.19
2022-11-29T06:37:58.419Z,101726.47
2022-11-29T06:40:25.798Z,101732.53
2022-11-29T06:42:52.666Z,101735.19
2022-11-29T06:45:21.739Z,101742.09
2022-11-29T06:48:06.374Z,101742.19
2022-11-29T06:51:02.281Z,101749.84
2022-11-29T06:53:57.082Z,101747.22
2022-11-29T06:56:44.031Z,101744.56
2022-11-29T06:59:46.207Z,101753.19
2022-11-29T07:02:51.725Z,101755.78
2022-11-29T07:05:29.718Z,101757.50
2022-11-29T07:08:03.759Z,101755.00
2022-11-29T07:10:35.123Z,101760.16
2022-11-29T07:13:02.361Z,101764.56
2022-11-29T07:15:29.657Z,101761.91
2022-11-29T07:18:21.590Z,101765.38
2022-11-29T07:21:35.623Z,101767.75
2022-11-29T07:24:33.760Z,101782.50
2022-11-29T07:27:49.224Z,101775.50
2022-11-29T07:30:20.239Z,101778.09
2022-11-29T07:33:17.509Z,101778.09
2022-11-29T07:36:07.171Z,101785.09
2022-11-29T07:39:00.354Z,101784.22
2022-11-29T07:42:02.842Z,101784.16
2022-11-29T07:44:36.314Z,101792.84
2022-11-29T07:47:03.278Z,101786.78
2022-11-29T07:49:30.235Z,101784.28
2022-11-29T07:51:57.223Z,101792.91
2022-11-29T07:54:24.221Z,101785.25
2022-11-29T07:56:51.250Z,101796.50
2022-11-29T07:59:18.328Z,101789.66
2022-11-29T08:01:45.215Z,101794.00
2022-11-29T08:04:12.080Z,101794.00
2022-11-29T08:06:39.034Z,101807.03
2022-11-29T08:09:07.495Z,101808.81
2022-11-29T08:11:34.414Z,101809.81
2022-11-29T08:14:03.219Z,101801.31
2022-11-29T08:16:30.566Z,101810.00
2022-11-29T08:18:57.739Z,101800.44
2022-11-29T08:21:24.635Z,101799.78
2022-11-29T08:23:51.692Z,101810.19
2022-11-29T08:26:19.898Z,101816.31
2022-11-29T08:28:53.575Z,101811.19
2022-11-29T08:31:21.458Z,101815.66
2022-11-29T08:33:48.533Z,101812.06
2022-11-29T08:36:20.366Z,101820.88
2022-11-29T08:38:47.839Z,101821.00
2022-11-29T08:41:16.967Z,101814.19
2022-11-29T08:43:44.811Z,101817.75
2022-11-29T08:46:18.043Z,101822.94
2022-11-29T08:48:46.659Z,101829.06
2022-11-29T08:51:13.810Z,101829.19
2022-11-29T08:53:44.752Z,101838.78
2022-11-29T08:57:04.491Z,101835.31
2022-11-29T08:59:02.657Z,101829.94
2022-11-29T09:01:29.758Z,101834.44
2022-11-29T09:03:59.634Z,101835.63
2022-11-29T09:06:33.618Z,101841.66
2022-11-29T09:09:01.064Z,101833.91
2022-11-29T09:11:29.578Z,101845.22
2022-11-29T09:14:00.403Z,101849.69
2022-11-29T09:16:30.555Z,101848.06
2022-11-29T09:18:57.486Z,101854.97
2022-11-29T09:21:27.186Z,101853.28
2022-11-29T09:23:59.036Z,101857.66
2022-11-29T09:26:30.671Z,101854.28
2022-11-29T09:29:01.254Z,101861.28
2022-11-29T09:31:30.082Z,101853.41
2022-11-29T09:33:57.426Z,101851.91
2022-11-29T09:36:28.397Z,101863.34
2022-11-29T09:38:55.632Z,101867.78
2022-11-29T09:42:03.295Z,101865.25
2022-11-29T09:45:05.439Z,101864.38
2022-11-29T09:47:59.900Z,101870.47
2022-11-29T09:50:43.178Z,101863.72
2022-11-29T09:53:36.034Z,101863.84
2022-11-29T09:56:31.091Z,101866.50
2022-11-29T09:59:01.992Z,101873.44
2022-11-29T10:01:36.778Z,101865.72
2022-11-29T10:04:19.253Z,101864.97
2022-11-29T10:07:14.790Z,101858.78
2022-11-29T10:09:56.117Z,101859.78
2022-11-29T10:12:37.871Z,101866.91
2022-11-29T10:15:19.867Z,101862.56
2022-11-29T10:18:11.769Z,101860.84
2022-11-29T10:20:48.644Z,101862.69
2022-11-29T10:23:36.689Z,101860.19
2022-11-29T10:26:08.004Z,101861.06
2022-11-29T10:28:37.094Z,101863.78
2022-11-29T10:31:27.028Z,101865.38
2022-11-29T10:34:01.596Z,101854.72
2022-11-29T10:36:51.177Z,101866.22
2022-11-29T10:39:40.281Z,101866.25
2022-11-29T10:42:35.635Z,101864.50
2022-11-29T10:45:03.874Z,101865.44
2022-11-29T10:47:31.972Z,101878.69
2022-11-29T10:49:59.133Z,101873.50
2022-11-29T10:52:26.022Z,101867.38
2022-11-29T10:54:57.104Z,101855.03
2022-11-29T10:57:24.090Z,101865.47
2022-11-29T11:00:11.766Z,101869.91
2022-11-29T11:02:38.836Z,101866.38
2022-11-29T11:05:18.463Z,101866.31
2022-11-29T11:07:47.416Z,101868.94
2022-11-29T11:10:29.545Z,101872.50
2022-11-29T11:13:20.295Z,101874.19
2022-11-29T11:15:47.172Z,101867.56
2022-11-29T11:18:24.345Z,101863.16
2022-11-29T11:20:57.881Z,101872.75
2022-11-29T11:23:31.644Z,101861.38
2022-11-29T11:26:09.155Z,101868.53
2022-11-29T11:28:57.729Z,101873.84
2022-11-29T11:31:40.729Z,101875.72
2022-11-29T11:34:35.320Z,101876.59
2022-11-29T11:37:28.157Z,101872.31
2022-11-29T11:39:59.835Z,101878.38
2022-11-29T11:42:38.260Z,101873.25
2022-11-29T11:45:11.154Z,101874.25
2022-11-29T11:47:44.958Z,101883.00
2022-11-29T11:50:37.570Z,101887.44
2022-11-29T11:53:29.762Z,101884.94
2022-11-29T11:56:12.698Z,101890.13
2022-11-29T11:58:49.829Z,101892.78
2022-11-29T12:01:38.728Z,101887.59
2022-11-29T12:04:27.676Z,101892.72
2022-11-29T12:07:29.620Z,101902.94
2022-11-29T12:10:12.044Z,101897.56
2022-11-29T12:12:42.972Z,101892.31
2022-11-29T12:15:28.797Z,101893.00
2022-11-29T12:18:04.695Z,101902.69
2022-11-29T12:20:40.260Z,101899.22
2022-11-29T12:23:13.058Z,101898.34
2022-11-29T12:26:01.693Z,101906.03
2022-11-29T12:28:34.837Z,101909.50
2022-11-29T12:31:41.749Z,101913.03
2022-11-29T12:34:41.329Z,101917.38
2022-11-29T12:37:24.579Z,101925.22
2022-11-29T12:40:07.405Z,101921.84
2022-11-29T12:43:11.650Z,101919.16
2022-11-29T12:46:02.129Z,101919.16
2022-11-29T12:49:07.081Z,101920.88
2022-11-29T12:51:59.093Z,101924.28
2022-11-29T12:54:51.701Z,101920.75
2022-11-29T12:57:43.064Z,101924.16
2022-11-29T13:00:17.560Z,101919.75
2022-11-29T13:03:15.093Z,101930.03
2022-11-29T13:05:50.425Z,101921.47
2022-11-29T13:08:43.122Z,101920.63
2022-11-29T13:11:34.685Z,101925.00
2022-11-29T13:17:54.858Z,101936.94
2022-11-29T13:20:44.691Z,101934.34
2022-11-29T13:24:10.199Z,101930.00
2022-11-29T13:26:40.165Z,101931.66
2022-11-29T13:29:13.158Z,101935.97
2022-11-29T13:31:41.025Z,101928.19
2022-11-29T13:34:13.421Z,101934.41
2022-11-29T13:37:00.516Z,101922.22
2022-11-29T13:39:50.921Z,101922.22
2022-11-29T13:42:59.716Z,101944.88
2022-11-29T13:45:44.785Z,101932.69
2022-11-29T13:48:34.756Z,101937.78
2022-11-29T13:51:25.131Z,101941.25
2022-11-29T13:53:53.661Z,101941.31
2022-11-29T13:56:47.503Z,101940.38
2022-11-29T13:59:29.939Z,101949.00
2022-11-29T14:01:58.469Z,101936.13
2022-11-29T14:04:35.160Z,101934.41
2022-11-29T14:07:14.143Z,101933.56
2022-11-29T14:09:51.251Z,101932.78
2022-11-29T14:12:39.971Z,101942.22
2022-11-29T14:15:31.739Z,101945.66
2022-11-29T14:18:02.848Z,101944.69
2022-11-29T14:20:29.587Z,101947.28
2022-11-29T14:23:05.453Z,101948.13
2022-11-29T14:25:52.790Z,101944.69
2022-11-29T14:28:22.478Z,101954.19
2022-11-29T14:31:03.958Z,101956.78
2022-11-29T14:34:12.895Z,101936.59
2022-11-29T14:37:15.120Z,101948.13
2022-11-29T14:39:48.662Z,101953.41
2022-11-29T14:42:21.561Z,101958.69
2022-11-29T14:45:00.640Z,101961.31
2022-11-29T14:47:47.794Z,101964.78
2022-11-29T14:50:38.173Z,101963.00
2022-11-29T14:53:30.469Z,101958.59
2022-11-29T14:56:31.731Z,101960.34
2022-11-29T14:59:40.247Z,101960.31
2022-11-29T15:02:19.855Z,101968.09
2022-11-29T15:04:49.275Z,101963.72
2022-11-29T15:07:25.463Z,101962.03
2022-11-29T15:09:59.623Z,101972.31
2022-11-29T15:12:35.635Z,101967.22
2022-11-29T15:15:33.167Z,101976.63
2022-11-29T15:18:27.227Z,101976.72
2022-11-29T15:21:36.107Z,101981.03
2022-11-29T15:24:12.855Z,101982.75
2022-11-29T15:26:57.306Z,101981.91
2022-11-29T15:29:24.763Z,101981.03
2022-11-29T15:31:57.892Z,101987.97
2022-11-29T15:34:29.809Z,101994.03
2022-11-29T15:36:56.685Z,101990.63
2022-11-29T15:39:34.669Z,102001.78
2022-11-29T15:42:11.889Z,102001.88
2022-11-29T15:44:48.835Z,102010.50
2022-11-29T15:47:24.948Z,102008.00
2022-11-29T15:49:55.410Z,102012.31
2022-11-29T15:52:33.827Z,102001.63
2022-11-29T15:55:04.849Z,102021.00
2022-11-29T15:57:39.978Z,102025.38
2022-11-29T16:00:15.252Z,102023.66
2022-11-29T16:03:01.657Z,102019.34
2022-11-29T16:05:34.397Z,102021.91
2022-11-29T16:08:05.702Z,102021.06
2022-11-29T16:10:47.331Z,102022.78
2022-11-29T16:13:31.968Z,102020.19
2022-11-29T16:16:20.349Z,102026.13
2022-11-29T16:18:48.931Z,102023.56
2022-11-29T16:21:29.020Z,102024.41
2022-11-29T16:23:56.981Z,102026.13
2022-11-29T16:26:33.916Z,102032.19
2022-11-29T16:29:00.952Z,102033.94
2022-11-29T16:31:37.391Z,102031.34
2022-11-29T16:34:34.061Z,102028.72
2022-11-29T16:37:06.259Z,102028.72
2022-11-29T16:39:35.444Z,102039.06
2022-11-29T16:42:24.648Z,102039.88
2022-11-29T16:45:27.639Z,102041.59
2022-11-29T16:47:59.435Z,102040.72
2022-11-29T16:50:31.468Z,102045.81
2022-11-29T16:53:42.872Z,102047.50
2022-11-29T16:56:20.725Z,102057.03
2022-11-29T16:59:24.597Z,102044.63
2022-11-29T17:01:40.643Z,102041.34
2022-11-29T17:04:08.971Z,102047.53
2022-11-29T17:06:36.361Z,102054.34
2022-11-29T17:09:04.697Z,102061.34
2022-11-29T17:11:31.586Z,102063.06
2022-11-29T17:13:58.798Z,102054.44
2022-11-29T17:16:25.708Z,102058.72
2022-11-29T17:18:53.715Z,102059.59
2022-11-29T17:21:26.119Z,102063.84
2022-11-29T17:23:53.762Z,102066.41
2022-11-29T17:26:21.619Z,102068.13
2022-11-29T17:28:51.070Z,102075.97
2022-11-29T17:31:21.550Z,102068.13
2022-11-29T17:33:48.850Z,102069.88
2022-11-29T17:36:19.280Z,102064.59
2022-11-29T17:38:46.552Z,102079.50
2022-11-29T17:41:21.811Z,102083.88
2022-11-29T17:43:50.520Z,102071.59
2022-11-29T17:46:23.640Z,102086.34
2022-11-29T17:48:52.195Z,102088.09
2022-11-29T17:51:50.693Z,102087.97
2022-11-29T17:54:09.754Z,102087.03
2022-11-29T17:56:36.632Z,102086.16
2022-11-29T17:59:04.444Z,102089.50
2022-11-29T18:01:34.653Z,102086.94
2022-11-29T18:04:04.375Z,102088.63
2022-11-29T18:06:39.142Z,102088.63
2022-11-29T18:09:08.841Z,102080.78
2022-11-29T18:11:46.900Z,102092.88
2022-11-29T18:14:19.802Z,102093.78
2022-11-29T18:16:46.814Z,102087.66
2022-11-29T18:19:17.316Z,102101.50
2022-11-29T18:21:44.258Z,102096.31
2022-11-29T18:24:11.590Z,102097.19
2022-11-29T18:26:39.241Z,102097.19
2022-11-29T18:29:07.274Z,102101.56
2022-11-29T18:31:41.762Z,102107.63
2022-11-29T18:34:10.943Z,102104.19
2022-11-29T18:36:44.308Z,102105.03
2022-11-29T18:39:15.387Z,102109.25
2022-11-29T18:41:45.189Z,102104.00
2022-11-29T18:44:14.511Z,102109.13
2022-11-29T18:46:44.405Z,102112.53
2022-11-29T18:49:14.450Z,102113.34
2022-11-29T18:51:44.516Z,102112.47
2022-11-29T18:54:12.550Z,102113.06
2022-11-29T18:56:39.960Z,102119.22
2022-11-29T18:59:11.738Z,102126.09
2022-11-29T19:01:42.312Z,102114.78
2022-11-29T19:04:13.450Z,102118.25
2022-11-29T19:06:41.018Z,102118.25
2022-11-29T19:09:14.507Z,102122.50
2022-11-29T19:11:41.807Z,102113.72
2022-11-29T19:14:11.727Z,102123.28
2022-11-29T19:16:42.527Z,102117.25
2022-11-29T19:19:09.785Z,102100.44
2022-11-29T19:21:36.833Z,102118.97
2022-11-29T19:24:13.196Z,102118.09
2022-11-29T19:26:40.875Z,102115.41
2022-11-29T19:29:07.774Z,102116.25
2022-11-29T19:31:34.644Z,102118.78
2022-11-29T19:34:01.565Z,102124.69
2022-11-29T19:36:30.939Z,102117.56
2022-11-29T19:39:03.162Z,102127.97
2022-11-29T19:41:33.370Z,102133.09
2022-11-29T19:44:07.374Z,102122.66
2022-11-29T19:46:41.506Z,102134.72
2022-11-29T19:49:09.933Z,102139.06
2022-11-29T19:51:37.380Z,102140.72
2022-11-29T19:54:07.146Z,102132.97
2022-11-29T19:56:34.424Z,102142.56
2022-11-29T19:59:01.311Z,102140.78
2022-11-29T20:01:37.847Z,102139.91
2022-11-29T20:04:06.514Z,102139.91
2022-11-29T20:06:33.410Z,102147.66
2022-11-29T20:09:00.441Z,102153.66
2022-11-29T20:11:27.397Z,102150.91
2022-11-29T20:14:00.616Z,102152.63
2022-11-29T20:16:29.491Z,102151.66
2022-11-29T20:18:57.116Z,102154.25
2022-11-29T20:21:29.915Z,102158.56
2022-11-29T20:24:03.638Z,102159.38
2022-11-29T20:26:33.567Z,102153.38
2022-11-29T20:29:02.106Z,102153.25
2022-11-29T20:31:29.905Z,102161.16
2022-11-29T20:33:59.835Z,102161.22
2022-11-29T20:37:12.876Z,102158.56
2022-11-29T20:40:19.785Z,102158.47
2022-11-29T20:43:09.353Z,102147.13
2022-11-29T20:45:36.915Z,102150.88
2022-11-29T20:48:17.666Z,102156.94
2022-11-29T20:50:53.753Z,102159.44
2022-11-29T20:53:44.285Z,102170.53
2022-11-29T20:56:11.923Z,102170.66
2022-11-29T20:58:39.315Z,102154.97
2022-11-29T21:01:07.348Z,102170.66
2022-11-29T21:03:34.771Z,102169.78
2022-11-29T21:06:05.339Z,102174.00
2022-11-29T21:08:32.610Z,102176.69
2022-11-29T21:11:10.259Z,102165.44
2022-11-29T21:13:38.029Z,102174.09
2022-11-29T21:16:05.445Z,102165.50
2022-11-29T21:18:33.802Z,102170.75
2022-11-29T21:21:20.081Z,102169.00
2022-11-29T21:24:11.252Z,102161.16
2022-11-29T21:26:51.127Z,102180.09
2022-11-29T21:29:19.927Z,102170.41
2022-11-29T21:31:50.417Z,102180.84
2022-11-29T21:34:17.649Z,102165.09
2022-11-29T21:36:45.549Z,102178.25
2022-11-29T21:39:15.546Z,102190.22
2022-11-29T21:41:42.506Z,102180.75
2022-11-29T21:44:09.383Z,102185.06
2022-11-29T21:46:36.463Z,102187.69
2022-11-29T21:49:04.151Z,102191.13
2022-11-29T21:51:31.005Z,102189.47
2022-11-29T21:53:57.894Z,102183.44
2022-11-29T21:56:25.420Z,102183.44
2022-11-29T21:58:52.397Z,102188.66
2022-11-29T22:01:20.349Z,102190.28
2022-11-29T22:03:47.601Z,102182.47
2022-11-29T22:06:18.578Z,102184.09
2022-11-29T22:08:45.460Z,102190.09
2022-11-29T22:11:30.915Z,102186.59
2022-11-29T22:14:18.895Z,102189.28
2022-11-29T22:16:55.372Z,102190.09
2022-11-29T22:19:31.862Z,102194.38
2022-11-29T22:22:05.841Z,102190.91
2022-11-29T22:24:35.983Z,102193.50
2022-11-29T22:27:03.231Z,102196.94
2022-11-29T22:29:30.250Z,102202.22
2022-11-29T22:31:59.171Z,102196.16
2022-11-29T22:34:27.782Z,102203.03
2022-11-29T22:36:55.339Z,102199.63
2022-11-29T22:39:22.856Z,102196.03
2022-11-29T22:41:54.271Z,102201.38
2022-11-29T22:44:23.134Z,102198.78
2022-11-29T22:46:50.693Z,102202.34
2022-11-29T22:49:17.673Z,102201.53
2022-11-29T22:51:44.541Z,102201.47
2022-11-29T22:54:11.791Z,102191.78
2022-11-29T22:56:41.082Z,102210.19
2022-11-29T22:59:08.354Z,102213.66
2022-11-29T23:01:38.683Z,102210.19
2022-11-29T23:04:10.367Z,102211.06
2022-11-29T23:06:44.864Z,102213.56
2022-11-29T23:09:20.997Z,102209.34
2022-11-29T23:11:54.070Z,102207.59
2022-11-29T23:14:22.482Z,102205.91
2022-11-29T23:16:49.790Z,102204.13
2022-11-29T23:19:17.363Z,102207.53
2022-11-29T23:21:45.761Z,102200.50
2022-11-29T23:24:14.034Z,102201.34
2022-11-29T23:26:45.470Z,102209.09
2022-11-29T23:29:17.083Z,102207.31
2022-11-29T23:31:44.260Z,102204.81
2022-11-29T23:34:12.377Z,102208.25
2022-11-29T23:36:39.422Z,102212.66
2022-11-29T23:39:06.991Z,102215.28
2022-11-29T23:41:36.214Z,102213.56
2022-11-29T23:44:05.089Z,102208.56
2022-11-29T23:46:32.760Z,102207.72
2022-11-29T23:48:59.626Z,102212.06
2022-11-29T23:51:26.502Z,102210.41
2022-11-29T23:53:55.027Z,102207.84
2022-11-29T23:56:22.823Z,102216.59
2022-11-29T23:58:49.964Z,102208.81
